createdAt,value
2019-05-13T00:00:35.927Z,51.70
2019-05-13T00:01:38.939Z,51.70
2019-05-13T00:02:43.827Z,51.80
2019-05-13T00:03:46.827Z,51.90
2019-05-13T00:04:49.850Z,52.00
2019-05-13T00:05:53.572Z,52.00
2019-05-13T00:06:57.719Z,52.00
2019-05-13T00:08:03.207Z,51.80
2019-05-13T00:09:06.415Z,52.30
2019-05-13T00:10:09.539Z,51.70
2019-05-13T00:11:13.658Z,52.00
2019-05-13T00:12:18.009Z,52.20
2019-05-13T00:13:21.027Z,52.20
2019-05-13T00:14:24.079Z,52.00
2019-05-13T00:15:27.132Z,52.00
2019-05-13T00:16:30.144Z,52.00
2019-05-13T00:17:34.171Z,51.80
2019-05-13T00:18:37.481Z,51.70
2019-05-13T00:19:40.547Z,51.90
2019-05-13T00:20:44.457Z,52.00
2019-05-13T00:21:47.489Z,52.00
2019-05-13T00:22:50.522Z,52.00
2019-05-13T00:23:53.607Z,51.90
2019-05-13T00:24:56.992Z,51.80
2019-05-13T00:25:59.984Z,51.60
2019-05-13T00:27:03.859Z,51.40
2019-05-13T00:28:07.183Z,52.00
2019-05-13T00:29:10.219Z,51.50
2019-05-13T00:30:14.478Z,51.60
2019-05-13T00:31:17.755Z,51.70
2019-05-13T00:32:21.169Z,51.80
2019-05-13T00:33:24.815Z,51.80
2019-05-13T00:34:27.961Z,51.70
2019-05-13T00:35:30.957Z,51.70
2019-05-13T00:36:33.989Z,51.70
2019-05-13T00:37:37.592Z,51.80
2019-05-13T00:38:40.631Z,52.00
2019-05-13T00:39:44.255Z,52.00
2019-05-13T00:40:47.278Z,52.00
2019-05-13T00:41:52.862Z,51.90
2019-05-13T00:42:55.607Z,51.70
2019-05-13T00:43:58.681Z,51.70
2019-05-13T00:45:03.888Z,51.90
2019-05-13T00:46:06.815Z,51.90
2019-05-13T00:47:09.842Z,52.50
2019-05-13T00:48:14.389Z,51.70
2019-05-13T00:49:18.579Z,51.70
2019-05-13T00:50:23.945Z,51.80
2019-05-13T00:51:26.407Z,51.80
2019-05-13T00:52:29.411Z,51.90
2019-05-13T00:53:35.118Z,51.80
2019-05-13T00:54:37.525Z,51.70
2019-05-13T00:55:40.895Z,51.60
2019-05-13T00:56:44.092Z,51.60
2019-05-13T00:57:47.126Z,51.40
2019-05-13T00:58:50.137Z,51.20
2019-05-13T00:59:54.110Z,51.20
2019-05-13T01:00:57.195Z,51.10
2019-05-13T01:02:00.528Z,51.00
2019-05-13T01:03:04.750Z,50.90
2019-05-13T01:04:07.844Z,50.80
2019-05-13T01:05:11.110Z,50.80
2019-05-13T01:06:14.109Z,50.70
2019-05-13T01:07:25.868Z,50.70
2019-05-13T01:08:23.679Z,50.70
2019-05-13T01:09:26.874Z,50.60
2019-05-13T01:10:29.899Z,50.40
2019-05-13T01:11:35.812Z,50.30
2019-05-13T01:12:39.197Z,50.30
2019-05-13T01:13:43.333Z,50.30
2019-05-13T01:14:47.308Z,50.40
2019-05-13T01:15:50.329Z,50.40
2019-05-13T01:16:54.396Z,50.40
2019-05-13T01:17:57.528Z,50.40
2019-05-13T01:19:00.515Z,50.40
2019-05-13T01:20:04.273Z,50.40
2019-05-13T01:21:07.856Z,50.40
2019-05-13T01:22:13.353Z,50.40
2019-05-13T01:23:16.115Z,50.30
2019-05-13T01:24:19.119Z,50.30
2019-05-13T01:25:24.392Z,50.40
2019-05-13T01:26:27.927Z,50.40
2019-05-13T01:27:32.912Z,50.40
2019-05-13T01:28:35.783Z,50.40
2019-05-13T01:29:39.686Z,50.40
2019-05-13T01:30:43.899Z,50.40
2019-05-13T01:31:48.151Z,50.40
2019-05-13T01:32:53.871Z,50.50
2019-05-13T01:33:55.967Z,50.60
2019-05-13T01:34:59.011Z,50.70
2019-05-13T01:36:04.970Z,50.80
2019-05-13T01:37:06.939Z,50.90
2019-05-13T01:38:10.406Z,51.00
2019-05-13T01:39:13.899Z,50.90
2019-05-13T01:40:17.007Z,50.90
2019-05-13T01:41:20.035Z,50.90
2019-05-13T01:42:24.134Z,51.00
2019-05-13T01:43:27.185Z,51.00
2019-05-13T01:44:30.201Z,51.00
2019-05-13T01:45:33.959Z,51.00
2019-05-13T01:46:37.747Z,50.90
2019-05-13T01:47:43.733Z,50.90
2019-05-13T01:48:45.939Z,51.00
2019-05-13T01:49:48.972Z,51.20
2019-05-13T01:50:53.831Z,51.30
2019-05-13T01:51:56.836Z,51.40
2019-05-13T01:52:59.947Z,51.70
2019-05-13T01:54:04.179Z,51.70
2019-05-13T01:55:07.851Z,51.80
2019-05-13T01:56:11.043Z,52.00
2019-05-13T01:57:14.382Z,51.90
2019-05-13T01:58:17.487Z,51.90
2019-05-13T01:59:20.494Z,52.00
2019-05-13T02:00:24.293Z,52.00
2019-05-13T02:01:27.357Z,52.40
2019-05-13T02:02:30.363Z,52.60
2019-05-13T02:03:33.904Z,52.80
2019-05-13T02:04:36.999Z,52.90
2019-05-13T02:05:40.019Z,53.10
2019-05-13T02:06:44.322Z,53.20
2019-05-13T02:07:57.619Z,53.30
2019-05-13T02:08:54.326Z,53.40
2019-05-13T02:09:57.612Z,53.40
2019-05-13T02:11:00.807Z,53.40
2019-05-13T02:12:04.786Z,53.40
2019-05-13T02:13:08.184Z,53.50
2019-05-13T02:14:13.170Z,53.40
2019-05-13T02:15:16.169Z,53.20
2019-05-13T02:16:19.163Z,53.10
2019-05-13T02:17:23.422Z,52.80
2019-05-13T02:18:26.547Z,52.60
2019-05-13T02:19:29.564Z,52.60
2019-05-13T02:20:33.520Z,52.50
2019-05-13T02:21:36.975Z,52.50
2019-05-13T02:22:40.041Z,52.30
2019-05-13T02:23:44.279Z,52.20
2019-05-13T02:24:49.913Z,52.30
2019-05-13T02:25:54.487Z,52.40
2019-05-13T02:26:57.623Z,52.30
2019-05-13T02:28:00.619Z,52.10
2019-05-13T02:29:03.856Z,52.20
2019-05-13T02:30:07.496Z,52.20
2019-05-13T02:31:16.502Z,52.30
2019-05-13T02:32:15.387Z,52.20
2019-05-13T02:33:18.385Z,52.20
2019-05-13T02:34:23.108Z,52.10
2019-05-13T02:35:26.984Z,52.00
2019-05-13T02:36:33.047Z,52.00
2019-05-13T02:37:34.840Z,52.10
2019-05-13T02:38:37.842Z,52.40
2019-05-13T02:39:42.713Z,52.40
2019-05-13T02:40:45.744Z,52.40
2019-05-13T02:41:52.027Z,52.40
2019-05-13T02:42:54.539Z,52.30
2019-05-13T02:43:57.531Z,52.20
2019-05-13T02:45:03.583Z,52.20
2019-05-13T02:46:05.413Z,52.20
2019-05-13T02:47:12.116Z,52.00
2019-05-13T02:48:13.777Z,52.10
2019-05-13T02:49:16.851Z,52.10
2019-05-13T02:50:22.378Z,52.30
2019-05-13T02:51:24.865Z,52.30
2019-05-13T02:52:27.887Z,52.70
2019-05-13T02:53:33.623Z,52.80
2019-05-13T02:54:35.700Z,52.90
2019-05-13T02:55:43.438Z,53.00
2019-05-13T02:56:45.412Z,53.00
2019-05-13T02:57:48.469Z,53.00
2019-05-13T02:58:52.679Z,53.00
2019-05-13T02:59:56.355Z,53.10
2019-05-13T03:01:02.803Z,53.20
2019-05-13T03:02:05.237Z,53.20
2019-05-13T03:03:08.237Z,53.20
2019-05-13T03:04:13.240Z,53.30
2019-05-13T03:05:16.905Z,53.30
2019-05-13T03:06:22.261Z,53.20
2019-05-13T03:07:24.882Z,53.30
2019-05-13T03:08:45.027Z,53.30
2019-05-13T03:09:33.242Z,53.20
2019-05-13T03:10:36.244Z,53.10
2019-05-13T03:11:42.373Z,53.00
2019-05-13T03:12:44.311Z,52.90
2019-05-13T03:13:47.903Z,53.00
2019-05-13T03:14:53.326Z,52.90
2019-05-13T03:16:03.334Z,53.00
2019-05-13T03:17:13.005Z,53.00
2019-05-13T03:18:17.296Z,53.10
2019-05-13T03:19:22.494Z,53.20
2019-05-13T03:20:25.125Z,53.20
2019-05-13T03:21:28.179Z,53.20
2019-05-13T03:22:32.650Z,53.20
2019-05-13T03:23:35.853Z,53.20
2019-05-13T03:24:42.990Z,53.30
2019-05-13T03:25:46.153Z,53.40
2019-05-13T03:26:49.219Z,53.50
2019-05-13T03:27:54.000Z,53.50
2019-05-13T03:28:57.098Z,53.60
2019-05-13T03:30:04.255Z,53.60
2019-05-13T03:31:07.216Z,53.70
2019-05-13T03:32:16.476Z,53.70
2019-05-13T03:33:19.058Z,53.80
2019-05-13T03:34:25.409Z,53.80
2019-05-13T03:35:27.684Z,53.80
2019-05-13T03:36:35.730Z,53.90
2019-05-13T03:37:35.602Z,53.70
2019-05-13T03:38:58.748Z,53.60
2019-05-13T03:39:45.218Z,53.70
2019-05-13T03:40:52.440Z,53.70
2019-05-13T03:41:57.460Z,53.70
2019-05-13T03:43:02.838Z,53.60
2019-05-13T03:44:13.151Z,53.60
2019-05-13T03:45:14.952Z,53.40
2019-05-13T03:46:22.726Z,53.50
2019-05-13T03:47:27.483Z,53.40
2019-05-13T03:48:33.682Z,53.50
2019-05-13T03:49:37.388Z,53.60
2019-05-13T03:50:43.411Z,53.50
2019-05-13T03:51:46.093Z,53.40
2019-05-13T03:52:52.258Z,53.40
2019-05-13T03:53:55.455Z,53.20
2019-05-13T03:55:02.875Z,53.10
2019-05-13T03:56:04.787Z,53.10
2019-05-13T03:57:08.612Z,53.10
2019-05-13T03:58:13.076Z,53.10
2019-05-13T03:59:16.405Z,53.20
2019-05-13T04:00:19.599Z,53.20
2019-05-13T04:01:23.327Z,53.10
2019-05-13T04:02:26.608Z,53.20
2019-05-13T04:03:33.154Z,53.00
2019-05-13T04:04:37.500Z,52.90
2019-05-13T04:05:43.727Z,52.80
2019-05-13T04:06:45.819Z,52.80
2019-05-13T04:07:52.007Z,52.70
2019-05-13T04:08:54.382Z,52.60
2019-05-13T04:09:57.615Z,52.50
2019-05-13T04:11:02.892Z,52.70
2019-05-13T04:12:05.458Z,52.50
2019-05-13T04:13:08.558Z,52.30
2019-05-13T04:14:13.275Z,52.40
2019-05-13T04:15:16.537Z,52.30
2019-05-13T04:16:23.332Z,52.40
2019-05-13T04:17:24.660Z,52.50
2019-05-13T04:18:28.448Z,52.40
2019-05-13T04:19:33.700Z,52.40
2019-05-13T04:20:36.877Z,52.50
2019-05-13T04:21:42.991Z,52.30
2019-05-13T04:22:45.327Z,52.30
2019-05-13T04:23:52.790Z,52.30
2019-05-13T04:24:54.635Z,52.10
2019-05-13T04:25:57.645Z,52.10
2019-05-13T04:27:02.903Z,52.00
2019-05-13T04:28:05.897Z,52.30
2019-05-13T04:29:09.197Z,52.30
2019-05-13T04:30:13.267Z,52.30
2019-05-13T04:31:17.373Z,52.40
2019-05-13T04:32:23.070Z,52.40
2019-05-13T04:33:25.320Z,52.40
2019-05-13T04:34:28.426Z,52.50
2019-05-13T04:35:33.246Z,52.50
2019-05-13T04:36:42.784Z,52.30
2019-05-13T04:37:44.646Z,52.40
2019-05-13T04:38:47.681Z,52.40
2019-05-13T04:39:55.775Z,52.50
2019-05-13T04:40:56.130Z,52.60
2019-05-13T04:42:02.109Z,52.40
2019-05-13T04:43:04.237Z,52.90
2019-05-13T04:44:07.572Z,52.30
2019-05-13T04:45:13.391Z,52.30
2019-05-13T04:46:15.801Z,52.30
2019-05-13T04:47:18.840Z,52.50
2019-05-13T04:48:23.034Z,52.60
2019-05-13T04:49:26.289Z,52.30
2019-05-13T04:50:32.688Z,52.30
2019-05-13T04:51:34.231Z,52.20
2019-05-13T04:52:37.819Z,52.00
2019-05-13T04:53:42.404Z,51.80
2019-05-13T04:54:45.781Z,51.60
2019-05-13T04:55:48.768Z,51.40
2019-05-13T04:56:52.723Z,51.40
2019-05-13T04:57:55.878Z,51.40
2019-05-13T04:59:02.759Z,51.70
2019-05-13T05:00:05.298Z,51.80
2019-05-13T05:02:14.423Z,52.00
2019-05-13T05:03:33.188Z,52.10
2019-05-13T05:04:44.504Z,52.20
2019-05-13T05:06:12.133Z,52.20
2019-05-13T05:07:42.512Z,52.20
2019-05-13T05:09:05.328Z,52.40
2019-05-13T05:10:50.018Z,52.10
2019-05-13T05:12:26.831Z,52.00
2019-05-13T05:13:56.497Z,52.20
2019-05-13T05:15:33.603Z,52.20
2019-05-13T05:17:36.028Z,52.40
2019-05-13T05:19:12.203Z,52.50
2019-05-13T05:20:57.588Z,52.20
2019-05-13T05:22:23.596Z,52.20
2019-05-13T05:23:42.316Z,52.20
2019-05-13T05:25:22.123Z,52.10
2019-05-13T05:27:05.560Z,52.10
2019-05-13T05:28:28.406Z,51.80
2019-05-13T05:29:55.338Z,51.60
2019-05-13T05:31:34.172Z,51.50
2019-05-13T05:33:02.116Z,51.70
2019-05-13T05:34:32.191Z,51.80
2019-05-13T05:36:11.794Z,51.80
2019-05-13T05:37:47.422Z,51.70
2019-05-13T05:39:18.459Z,51.70
2019-05-13T05:40:31.176Z,51.70
2019-05-13T05:41:31.573Z,51.50
2019-05-13T05:42:36.586Z,51.50
2019-05-13T05:43:45.222Z,51.50
2019-05-13T05:44:51.302Z,51.40
2019-05-13T05:45:54.037Z,51.20
2019-05-13T05:46:58.920Z,51.00
2019-05-13T05:48:03.878Z,51.00
2019-05-13T05:49:12.541Z,51.60
2019-05-13T05:50:14.762Z,50.80
2019-05-13T05:51:22.126Z,50.70
2019-05-13T05:52:28.027Z,50.70
2019-05-13T05:53:32.004Z,50.70
2019-05-13T05:54:37.903Z,50.70
2019-05-13T05:55:41.588Z,50.60
2019-05-13T05:56:46.352Z,50.60
2019-05-13T05:57:52.251Z,50.70
2019-05-13T05:58:58.051Z,50.40
2019-05-13T06:00:02.762Z,50.50
2019-05-13T06:01:07.345Z,50.70
2019-05-13T06:02:12.165Z,50.90
2019-05-13T06:03:16.026Z,50.80
2019-05-13T06:04:21.758Z,50.60
2019-05-13T06:05:26.583Z,50.50
2019-05-13T06:06:33.159Z,50.60
2019-05-13T06:07:37.051Z,50.70
2019-05-13T06:08:41.378Z,51.30
2019-05-13T06:09:44.503Z,50.70
2019-05-13T06:10:52.937Z,50.40
2019-05-13T06:11:53.793Z,50.60
2019-05-13T06:13:01.690Z,50.70
2019-05-13T06:14:04.411Z,50.60
2019-05-13T06:15:07.973Z,50.40
2019-05-13T06:16:12.291Z,50.20
2019-05-13T06:17:15.610Z,50.20
2019-05-13T06:18:18.712Z,50.20
2019-05-13T06:19:22.515Z,50.20
2019-05-13T06:20:25.703Z,50.50
2019-05-13T06:21:28.836Z,50.60
2019-05-13T06:22:32.164Z,50.90
2019-05-13T06:23:35.963Z,51.10
2019-05-13T06:24:39.151Z,51.10
2019-05-13T06:25:42.914Z,51.00
2019-05-13T06:26:46.351Z,50.90
2019-05-13T06:27:51.260Z,50.90
2019-05-13T06:28:54.627Z,50.60
2019-05-13T06:29:57.859Z,50.50
2019-05-13T06:31:02.551Z,50.50
2019-05-13T06:32:19.056Z,50.50
2019-05-13T06:33:12.144Z,50.60
2019-05-13T06:34:15.778Z,50.80
2019-05-13T06:35:18.981Z,50.90
2019-05-13T06:36:23.445Z,51.30
2019-05-13T06:37:26.477Z,51.20
2019-05-13T06:38:31.605Z,50.70
2019-05-13T06:39:34.247Z,50.60
2019-05-13T06:40:37.587Z,50.50
2019-05-13T06:41:41.760Z,50.50
2019-05-13T06:42:45.460Z,50.50
2019-05-13T06:43:48.539Z,50.80
2019-05-13T06:44:51.592Z,50.80
2019-05-13T06:45:54.863Z,50.50
2019-05-13T06:46:57.891Z,50.20
2019-05-13T06:48:03.766Z,50.20
2019-05-13T06:49:06.794Z,50.30
2019-05-13T06:50:11.630Z,50.30
2019-05-13T06:51:14.875Z,50.20
2019-05-13T06:52:17.949Z,50.40
2019-05-13T06:53:21.885Z,50.50
2019-05-13T06:54:25.175Z,50.50
2019-05-13T06:55:28.202Z,50.40
2019-05-13T06:56:32.234Z,50.30
2019-05-13T06:57:35.420Z,50.20
2019-05-13T06:58:41.346Z,50.20
2019-05-13T06:59:43.534Z,49.90
2019-05-13T07:00:46.556Z,49.60
2019-05-13T07:01:51.369Z,49.70
2019-05-13T07:02:55.180Z,49.60
2019-05-13T07:03:58.586Z,49.60
2019-05-13T07:05:02.483Z,49.70
2019-05-13T07:06:05.654Z,49.70
2019-05-13T07:07:16.005Z,49.60
2019-05-13T07:08:13.868Z,49.40
2019-05-13T07:09:16.893Z,49.60
2019-05-13T07:10:21.726Z,49.60
2019-05-13T07:11:25.257Z,49.70
2019-05-13T07:12:28.437Z,49.60
2019-05-13T07:13:32.258Z,49.70
2019-05-13T07:14:35.475Z,49.40
2019-05-13T07:15:38.638Z,49.60
2019-05-13T07:16:42.226Z,49.40
2019-05-13T07:17:46.199Z,49.40
2019-05-13T07:18:49.219Z,49.60
2019-05-13T07:19:52.491Z,50.10
2019-05-13T07:20:55.503Z,49.20
2019-05-13T07:21:58.560Z,48.90
2019-05-13T07:23:01.804Z,48.60
2019-05-13T07:24:05.603Z,49.10
2019-05-13T07:25:11.449Z,48.70
2019-05-13T07:26:14.570Z,49.00
2019-05-13T07:27:17.566Z,49.10
2019-05-13T07:28:22.513Z,49.00
2019-05-13T07:29:26.366Z,48.90
2019-05-13T07:30:42.463Z,49.00
2019-05-13T07:31:45.698Z,49.20
2019-05-13T07:32:49.139Z,49.40
2019-05-13T07:33:52.163Z,49.20
2019-05-13T07:34:56.112Z,49.50
2019-05-13T07:36:02.733Z,49.40
2019-05-13T07:37:07.234Z,49.30
2019-05-13T07:38:11.692Z,49.00
2019-05-13T07:39:14.787Z,48.70
2019-05-13T07:40:17.842Z,48.60
2019-05-13T07:41:35.227Z,48.50
2019-05-13T07:42:26.942Z,49.00
2019-05-13T07:43:32.082Z,48.40
2019-05-13T07:44:34.992Z,48.50
2019-05-13T07:45:38.570Z,48.40
2019-05-13T07:46:42.730Z,48.30
2019-05-13T07:47:46.116Z,48.00
2019-05-13T07:48:49.143Z,48.00
2019-05-13T07:49:52.427Z,48.10
2019-05-13T07:51:00.515Z,48.40
2019-05-13T07:52:01.879Z,48.50
2019-05-13T07:53:05.373Z,48.60
2019-05-13T07:54:08.407Z,48.90
2019-05-13T07:55:13.619Z,48.60
2019-05-13T07:56:17.121Z,48.30
2019-05-13T07:57:21.451Z,48.60
2019-05-13T07:58:24.722Z,48.80
2019-05-13T07:59:27.796Z,48.90
2019-05-13T08:00:32.627Z,48.90
2019-05-13T08:01:35.942Z,48.80
2019-05-13T08:02:41.547Z,48.90
2019-05-13T08:03:44.191Z,48.60
2019-05-13T08:04:49.422Z,48.60
2019-05-13T08:05:52.115Z,48.60
2019-05-13T08:06:55.146Z,48.50
2019-05-13T08:07:58.216Z,48.70
2019-05-13T08:09:01.841Z,48.60
2019-05-13T08:10:07.589Z,48.50
2019-05-13T08:11:12.697Z,48.40
2019-05-13T08:12:16.297Z,48.30
2019-05-13T08:13:19.357Z,48.10
2019-05-13T08:14:22.473Z,48.10
2019-05-13T08:15:26.052Z,48.40
2019-05-13T08:16:39.002Z,48.20
2019-05-13T08:17:52.590Z,48.20
2019-05-13T08:19:14.327Z,48.30
2019-05-13T08:20:47.337Z,48.50
2019-05-13T08:22:02.619Z,48.40
2019-05-13T08:23:21.770Z,48.50
2019-05-13T08:24:42.568Z,48.70
2019-05-13T08:25:48.583Z,48.50
2019-05-13T08:27:29.997Z,48.50
2019-05-13T08:28:53.951Z,48.60
2019-05-13T08:30:26.456Z,48.90
2019-05-13T08:31:42.027Z,48.80
2019-05-13T08:33:38.481Z,48.80
2019-05-13T08:35:06.513Z,48.80
2019-05-13T08:36:23.296Z,49.00
2019-05-13T08:37:43.493Z,49.00
2019-05-13T08:38:53.335Z,49.50
2019-05-13T08:40:08.922Z,49.00
2019-05-13T08:41:27.522Z,49.00
2019-05-13T08:43:01.272Z,49.00
2019-05-13T08:44:14.593Z,49.10
2019-05-13T08:45:38.534Z,49.00
2019-05-13T08:47:15.420Z,48.80
2019-05-13T08:48:51.949Z,48.60
2019-05-13T08:50:11.738Z,48.80
2019-05-13T08:51:34.655Z,49.20
2019-05-13T08:53:01.840Z,49.20
2019-05-13T08:54:25.527Z,49.20
2019-05-13T08:55:51.731Z,49.10
2019-05-13T08:57:02.760Z,49.00
2019-05-13T08:58:38.439Z,48.70
2019-05-13T09:00:05.529Z,48.50
2019-05-13T09:01:31.890Z,48.60
2019-05-13T09:02:54.467Z,48.60
2019-05-13T09:04:22.328Z,48.40
2019-05-13T09:05:51.959Z,48.60
2019-05-13T09:07:14.831Z,48.60
2019-05-13T09:08:42.477Z,48.70
2019-05-13T09:10:27.395Z,48.50
2019-05-13T09:11:38.773Z,48.50
2019-05-13T09:13:13.710Z,48.70
2019-05-13T09:14:21.939Z,49.00
2019-05-13T09:15:42.299Z,49.00
2019-05-13T09:16:52.650Z,49.00
2019-05-13T09:18:14.451Z,49.10
2019-05-13T09:19:48.488Z,49.40
2019-05-13T09:21:11.761Z,49.60
2019-05-13T09:22:31.845Z,49.50
2019-05-13T09:23:44.795Z,49.90
2019-05-13T09:25:12.327Z,50.70
2019-05-13T09:26:45.530Z,51.70
2019-05-13T09:28:21.770Z,52.20
2019-05-13T09:29:51.859Z,53.60
2019-05-13T09:31:45.516Z,54.50
2019-05-13T09:33:28.160Z,54.20
2019-05-13T09:34:42.239Z,54.70
2019-05-13T09:36:04.793Z,53.60
2019-05-13T09:37:16.581Z,53.30
2019-05-13T09:38:32.588Z,53.40
2019-05-13T09:40:02.436Z,52.90
2019-05-13T09:41:40.555Z,52.20
2019-05-13T09:42:59.175Z,52.80
2019-05-13T09:44:14.145Z,53.00
2019-05-13T09:45:32.243Z,52.70
2019-05-13T09:47:03.000Z,52.40
2019-05-13T09:48:22.236Z,50.80
2019-05-13T09:49:32.797Z,50.40
2019-05-13T09:51:08.520Z,50.80
2019-05-13T09:52:31.713Z,49.60
2019-05-13T09:54:03.078Z,49.70
2019-05-13T09:55:25.360Z,49.20
2019-05-13T09:56:22.496Z,48.10
2019-05-13T09:57:25.877Z,47.80
2019-05-13T09:58:52.603Z,48.00
2019-05-13T10:00:12.001Z,48.30
2019-05-13T10:01:22.393Z,47.40
2019-05-13T10:02:38.300Z,48.10
2019-05-13T10:03:54.786Z,48.50
2019-05-13T10:05:05.351Z,48.00
2019-05-13T10:06:16.460Z,48.30
2019-05-13T10:07:34.927Z,48.20
2019-05-13T10:09:13.242Z,48.50
2019-05-13T10:10:22.461Z,47.90
2019-05-13T10:11:42.655Z,47.40
2019-05-13T10:13:12.091Z,47.60
2019-05-13T10:14:24.104Z,48.10
2019-05-13T10:15:52.590Z,48.60
2019-05-13T10:17:17.767Z,47.70
2019-05-13T10:18:42.635Z,48.80
2019-05-13T10:19:51.872Z,47.70
2019-05-13T10:21:18.762Z,47.90
2019-05-13T10:22:48.061Z,48.10
2019-05-13T10:24:06.728Z,48.30
2019-05-13T10:25:14.405Z,48.10
2019-05-13T10:26:17.553Z,46.70
2019-05-13T10:27:22.348Z,46.60
2019-05-13T10:28:25.943Z,46.90
2019-05-13T10:29:31.665Z,46.60
2019-05-13T10:30:35.247Z,46.50
2019-05-13T10:31:38.370Z,46.20
2019-05-13T10:32:42.531Z,46.20
2019-05-13T10:33:45.776Z,46.30
2019-05-13T10:34:51.968Z,46.00
2019-05-13T10:35:55.625Z,46.00
2019-05-13T10:36:58.785Z,45.70
2019-05-13T10:38:04.483Z,46.00
2019-05-13T10:39:11.799Z,46.30
2019-05-13T10:40:16.262Z,46.30
2019-05-13T10:41:19.216Z,45.90
2019-05-13T10:42:22.461Z,45.80
2019-05-13T10:44:30.493Z,46.00
2019-05-13T10:45:33.632Z,46.10
2019-05-13T10:46:36.629Z,45.90
2019-05-13T10:47:42.350Z,46.00
2019-05-13T10:48:44.843Z,45.70
2019-05-13T10:49:47.909Z,46.40
2019-05-13T10:50:52.836Z,46.50
2019-05-13T10:51:56.420Z,45.60
2019-05-13T10:52:59.384Z,45.50
2019-05-13T10:54:02.318Z,45.60
2019-05-13T10:55:05.313Z,45.40
2019-05-13T10:56:09.253Z,45.20
2019-05-13T10:58:29.086Z,45.10
2019-05-13T10:59:32.249Z,45.20
2019-05-13T11:00:47.540Z,45.30
2019-05-13T11:01:50.996Z,45.30
2019-05-13T11:02:54.217Z,45.40
2019-05-13T11:03:57.140Z,45.30
2019-05-13T11:05:02.929Z,45.20
2019-05-13T11:06:06.857Z,45.20
2019-05-13T11:07:12.068Z,45.10
2019-05-13T11:08:14.774Z,45.10
2019-05-13T11:09:21.831Z,45.40
2019-05-13T11:10:32.600Z,45.40
2019-05-13T11:11:36.863Z,45.40
2019-05-13T11:12:41.862Z,45.90
2019-05-13T11:13:54.370Z,46.10
2019-05-13T11:14:51.559Z,46.50
2019-05-13T11:15:57.998Z,46.50
2019-05-13T11:17:01.615Z,46.20
2019-05-13T11:18:04.291Z,46.30
2019-05-13T11:19:07.821Z,46.40
2019-05-13T11:20:12.516Z,46.30
2019-05-13T11:21:15.487Z,46.40
2019-05-13T11:22:18.481Z,46.30
2019-05-13T11:23:23.164Z,46.20
2019-05-13T11:24:26.356Z,45.90
2019-05-13T11:25:29.311Z,46.00
2019-05-13T11:26:36.080Z,46.00
2019-05-13T11:27:38.004Z,46.00
2019-05-13T11:28:42.860Z,46.10
2019-05-13T11:29:46.083Z,46.30
2019-05-13T11:30:49.497Z,45.90
2019-05-13T11:31:53.791Z,45.80
2019-05-13T11:32:57.127Z,45.70
2019-05-13T11:34:02.053Z,45.80
2019-05-13T11:35:04.907Z,46.00
2019-05-13T11:36:07.825Z,45.10
2019-05-13T11:37:14.254Z,44.80
2019-05-13T11:38:17.171Z,44.60
2019-05-13T11:39:21.744Z,44.60
2019-05-13T11:40:24.954Z,44.50
2019-05-13T11:41:28.071Z,44.40
2019-05-13T11:42:32.716Z,44.40
2019-05-13T11:43:35.738Z,43.90
2019-05-13T11:44:38.697Z,43.40
2019-05-13T11:45:42.234Z,43.10
2019-05-13T11:46:45.165Z,42.80
2019-05-13T11:47:52.216Z,42.60
2019-05-13T11:48:55.377Z,42.00
2019-05-13T11:49:58.924Z,41.80
2019-05-13T11:51:03.939Z,41.50
2019-05-13T11:52:06.992Z,41.40
2019-05-13T11:53:30.040Z,41.00
2019-05-13T11:54:15.437Z,40.80
2019-05-13T11:55:18.534Z,41.00
2019-05-13T11:56:23.036Z,40.80
2019-05-13T11:57:26.117Z,40.70
2019-05-13T11:58:30.099Z,40.70
2019-05-13T11:59:34.265Z,41.10
2019-05-13T12:00:49.436Z,41.10
2019-05-13T12:01:54.442Z,41.30
2019-05-13T12:02:58.177Z,41.80
2019-05-13T12:04:02.861Z,42.10
2019-05-13T12:05:06.877Z,42.40
2019-05-13T12:06:09.817Z,42.80
2019-05-13T12:07:13.482Z,43.10
2019-05-13T12:08:17.613Z,42.30
2019-05-13T12:09:22.257Z,42.10
2019-05-13T12:10:25.307Z,41.80
2019-05-13T12:11:28.781Z,41.60
2019-05-13T12:12:34.451Z,41.60
2019-05-13T12:13:36.586Z,41.50
2019-05-13T12:14:56.768Z,41.40
2019-05-13T12:15:49.580Z,41.20
2019-05-13T12:16:50.156Z,41.30
2019-05-13T12:17:53.409Z,40.80
2019-05-13T12:18:56.385Z,40.70
2019-05-13T12:20:03.087Z,40.60
2019-05-13T12:21:05.789Z,41.50
2019-05-13T12:22:08.766Z,42.90
2019-05-13T12:23:12.998Z,43.50
2019-05-13T12:24:16.256Z,44.50
2019-05-13T12:25:22.426Z,44.50
2019-05-13T12:26:24.317Z,44.20
2019-05-13T12:27:27.239Z,44.40
2019-05-13T12:28:31.690Z,43.60
2019-05-13T12:29:34.595Z,43.00
2019-05-13T12:30:37.439Z,42.50
2019-05-13T12:31:40.605Z,41.90
2019-05-13T12:32:43.960Z,41.80
2019-05-13T12:33:46.942Z,41.40
2019-05-13T12:34:52.740Z,40.80
2019-05-13T12:35:54.565Z,40.80
2019-05-13T12:36:57.532Z,41.00
2019-05-13T12:38:00.596Z,41.00
2019-05-13T12:39:05.144Z,41.30
2019-05-13T12:40:08.247Z,41.40
2019-05-13T12:41:12.897Z,41.60
2019-05-13T12:42:16.994Z,42.40
2019-05-13T12:43:23.023Z,42.40
2019-05-13T12:44:24.770Z,43.00
2019-05-13T12:45:27.905Z,42.60
2019-05-13T12:46:31.063Z,42.40
2019-05-13T12:47:34.359Z,42.50
2019-05-13T12:48:37.481Z,42.40
2019-05-13T12:49:43.744Z,42.00
2019-05-13T12:50:45.446Z,41.70
2019-05-13T12:51:48.376Z,41.40
2019-05-13T12:52:51.570Z,40.90
2019-05-13T12:53:54.619Z,40.80
2019-05-13T12:54:57.969Z,40.10
2019-05-13T12:56:03.343Z,40.00
2019-05-13T12:57:12.017Z,40.10
2019-05-13T12:58:12.170Z,40.20
2019-05-13T12:59:18.380Z,40.00
2019-05-13T13:00:23.635Z,40.00
2019-05-13T13:01:26.521Z,40.10
2019-05-13T13:02:32.360Z,40.10
2019-05-13T13:03:34.658Z,40.20
2019-05-13T13:04:37.596Z,40.10
2019-05-13T13:05:43.202Z,39.90
2019-05-13T13:06:45.820Z,39.60
2019-05-13T13:08:13.610Z,39.30
2019-05-13T13:08:53.832Z,39.10
2019-05-13T13:09:56.780Z,38.90
2019-05-13T13:10:59.812Z,39.00
2019-05-13T13:12:03.398Z,39.00
2019-05-13T13:13:07.340Z,39.10
2019-05-13T13:14:15.152Z,38.70
2019-05-13T13:15:35.919Z,38.70
2019-05-13T13:16:20.853Z,38.60
2019-05-13T13:17:24.418Z,38.50
2019-05-13T13:18:28.349Z,38.40
2019-05-13T13:19:33.977Z,38.20
2019-05-13T13:20:42.108Z,38.20
2019-05-13T13:21:41.216Z,38.40
2019-05-13T13:22:44.238Z,38.40
2019-05-13T13:23:47.138Z,38.50
2019-05-13T13:24:52.967Z,38.80
2019-05-13T13:25:57.160Z,38.70
2019-05-13T13:26:59.955Z,38.60
2019-05-13T13:28:11.309Z,38.30
2019-05-13T13:29:08.197Z,38.10
2019-05-13T13:30:11.721Z,37.70
2019-05-13T13:31:14.784Z,37.70
2019-05-13T13:32:17.712Z,37.70
2019-05-13T13:33:21.602Z,37.50
2019-05-13T13:34:26.061Z,37.30
2019-05-13T13:35:29.405Z,37.70
2019-05-13T13:36:33.521Z,38.10
2019-05-13T13:37:37.286Z,38.50
2019-05-13T13:38:43.733Z,38.50
2019-05-13T13:39:44.954Z,38.70
2019-05-13T13:40:47.924Z,39.00
2019-05-13T13:41:53.355Z,39.30
2019-05-13T13:42:55.878Z,39.30
2019-05-13T13:44:04.700Z,39.50
2019-05-13T13:45:05.956Z,40.00
2019-05-13T13:46:25.279Z,40.60
2019-05-13T13:47:15.186Z,41.60
2019-05-13T13:48:18.326Z,42.10
2019-05-13T13:49:23.048Z,42.10
2019-05-13T13:50:25.999Z,42.80
2019-05-13T13:51:34.078Z,43.40
2019-05-13T13:52:34.156Z,43.40
2019-05-13T13:53:37.098Z,43.50
2019-05-13T13:54:44.142Z,43.70
2019-05-13T13:55:45.389Z,43.60
2019-05-13T13:56:48.331Z,43.40
2019-05-13T13:57:56.369Z,43.50
2019-05-13T13:58:56.042Z,43.40
2019-05-13T14:00:31.890Z,43.30
2019-05-13T14:01:11.567Z,43.20
2019-05-13T14:02:08.774Z,43.20
2019-05-13T14:03:12.379Z,43.10
2019-05-13T14:04:16.653Z,43.30
2019-05-13T14:05:23.628Z,43.20
2019-05-13T14:06:26.939Z,45.80
2019-05-13T14:07:22.254Z,42.90
2019-05-13T14:07:35.833Z,42.90
2019-05-13T14:08:35.193Z,42.70
2019-05-13T14:09:39.123Z,42.70
2019-05-13T14:10:42.134Z,42.60
2019-05-13T14:11:45.149Z,42.70
2019-05-13T14:12:48.456Z,42.70
2019-05-13T14:13:51.862Z,42.70
2019-05-13T14:14:54.825Z,42.80
2019-05-13T14:15:57.950Z,42.80
2019-05-13T14:17:02.446Z,42.70
2019-05-13T14:18:05.582Z,42.70
2019-05-13T14:19:08.535Z,42.40
2019-05-13T14:20:12.151Z,42.60
2019-05-13T14:21:16.520Z,42.70
2019-05-13T14:22:21.702Z,42.80
2019-05-13T14:23:24.947Z,42.80
2019-05-13T14:24:27.895Z,43.00
2019-05-13T14:25:32.445Z,42.80
2019-05-13T14:26:35.644Z,42.10
2019-05-13T14:27:38.574Z,42.10